Time;durP1;ratioP1;P1;durP2;ratioP2;P2;SDS_P1;SDS_P2;PMS_P1;PMS_P2;Temp;Humidity;BMP_temperature;BMP_pressure;BME280_temperature;BME280_humidity;BME280_pressure;Samples;Min_cycle;Max_cycle;Signal;HPM_P1;HPM_P2
2021/09/13 00:02:04;;;;;;;4.38;2.67;;;16.50;93.70;;;;;;4979736;28;20018;-91
2021/09/13 00:04:30;;;;;;;6.90;2.78;;;16.50;93.70;;;;;;4993160;28;20058;-90
2021/09/13 00:06:59;;;;;;;3.97;2.90;;;16.50;93.70;;;;;;4977543;28;20073;-91
2021/09/13 00:09:24;;;;;;;3.72;2.85;;;16.40;93.70;;;;;;4995429;28;20034;-92
2021/09/13 00:11:51;;;;;;;4.45;2.80;;;16.40;93.70;;;;;;4974357;28;20018;-92
2021/09/13 00:14:17;;;;;;;4.43;2.90;;;16.40;93.70;;;;;;4977133;28;20022;-91
2021/09/13 00:16:42;;;;;;;3.83;2.40;;;16.40;93.60;;;;;;4980122;28;20491;-91
2021/09/13 00:19:08;;;;;;;5.50;2.60;;;16.40;93.70;;;;;;5001902;28;20034;-91
2021/09/13 00:21:34;;;;;;;4.97;2.45;;;16.30;93.70;;;;;;4974760;28;20029;-91
2021/09/13 00:23:59;;;;;;;3.53;2.70;;;16.30;93.70;;;;;;4984846;28;20030;-92
2021/09/13 00:26:25;;;;;;;2.70;2.22;;;16.30;93.60;;;;;;4977044;28;20023;-91
2021/09/13 00:28:51;;;;;;;2.92;2.20;;;16.30;93.50;;;;;;4978941;28;20048;-90
2021/09/13 00:31:16;;;;;;;3.25;2.28;;;16.20;93.60;;;;;;4978628;28;20045;-91
2021/09/13 00:33:42;;;;;;;2.50;1.90;;;16.10;93.80;;;;;;4972837;28;20027;-89
2021/09/13 00:36:08;;;;;;;3.42;2.35;;;16.10;93.80;;;;;;4991553;28;20038;-90
2021/09/13 00:38:34;;;;;;;4.28;3.50;;;16.00;93.90;;;;;;4996572;28;20019;-92
2021/09/13 00:41:00;;;;;;;3.22;2.90;;;16.00;93.90;;;;;;5007913;28;20030;-91
2021/09/13 00:43:45;;;;;;;4.75;3.42;;;16.00;94.00;;;;;;4991032;28;20031;-90
2021/09/13 00:46:10;;;;;;;5.65;3.72;;;16.00;93.90;;;;;;4994021;28;20034;-90
2021/09/13 00:48:36;;;;;;;3.83;3.20;;;15.90;94.10;;;;;;5006989;28;20052;-90
2021/09/13 00:51:02;;;;;;;3.95;2.88;;;15.90;94.20;;;;;;4997633;28;20373;-90
2021/09/13 00:53:27;;;;;;;3.83;2.70;;;15.90;94.20;;;;;;5000552;28;20487;-90
2021/09/13 00:55:54;;;;;;;3.65;2.65;;;15.90;94.20;;;;;;5001591;28;20022;-91
2021/09/13 00:58:24;;;;;;;3.40;2.60;;;15.90;94.20;;;;;;5034783;28;20120;-90
2021/09/13 01:00:50;;;;;;;2.75;2.20;;;15.80;94.20;;;;;;5033770;28;20029;-91
2021/09/13 01:03:15;;;;;;;2.42;2.20;;;15.80;94.10;;;;;;4997920;28;20069;-92
2021/09/13 01:05:41;;;;;;;2.60;2.00;;;15.80;94.30;;;;;;5028791;28;20029;-90
2021/09/13 01:08:07;;;;;;;2.92;2.42;;;15.80;94.30;;;;;;5015520;28;20383;-90
2021/09/13 01:10:32;;;;;;;4.70;2.58;;;15.70;94.20;;;;;;4985745;28;20105;-91
2021/09/13 01:12:58;;;;;;;4.75;2.95;;;15.70;94.10;;;;;;5002639;28;20501;-91
2021/09/13 01:15:24;;;;;;;4.78;3.65;;;15.70;94.30;;;;;;5037499;28;20037;-91
2021/09/13 01:17:49;;;;;;;5.70;4.32;;;15.70;94.10;;;;;;5002352;28;20509;-91
2021/09/13 01:20:15;;;;;;;4.65;3.75;;;15.60;94.30;;;;;;5011924;28;20355;-92
2021/09/13 01:22:44;;;;;;;4.40;3.83;;;15.60;94.40;;;;;;5031081;28;20478;-91
2021/09/13 01:25:10;;;;;;;5.00;4.20;;;15.60;94.40;;;;;;5033490;28;20033;-91
2021/09/13 01:27:36;;;;;;;6.75;4.35;;;15.60;94.40;;;;;;5016536;28;20076;-91
2021/09/13 01:30:06;;;;;;;5.65;4.68;;;15.50;94.40;;;;;;5018846;28;20474;-91
2021/09/13 01:32:32;;;;;;;4.80;4.10;;;15.50;94.50;;;;;;5001393;28;20052;-90
2021/09/13 01:34:58;;;;;;;4.20;3.50;;;15.50;94.50;;;;;;5017032;28;20057;-92
2021/09/13 01:37:23;;;;;;;4.88;3.65;;;15.50;94.50;;;;;;5016394;28;20029;-92
2021/09/13 01:39:49;;;;;;;4.10;3.13;;;15.50;94.40;;;;;;4998694;28;20040;-91
2021/09/13 01:42:15;;;;;;;3.80;2.90;;;15.50;94.40;;;;;;5004597;28;20029;-92
2021/09/13 01:44:40;;;;;;;5.60;3.15;;;15.40;94.40;;;;;;5016957;28;20037;-92
2021/09/13 01:47:06;;;;;;;3.95;3.33;;;15.40;94.40;;;;;;5016733;28;20032;-91
2021/09/13 01:49:32;;;;;;;4.85;3.25;;;15.40;94.50;;;;;;5013621;28;20058;-91
2021/09/13 01:51:57;;;;;;;4.72;3.03;;;15.40;94.40;;;;;;4984457;28;20141;-91
2021/09/13 01:54:23;;;;;;;5.53;3.22;;;15.30;94.40;;;;;;5000657;28;20122;-91
2021/09/13 01:56:49;;;;;;;4.68;3.88;;;15.30;94.40;;;;;;4999734;28;20116;-91
2021/09/13 01:59:15;;;;;;;5.18;3.80;;;15.40;94.40;;;;;;4999602;28;20108;-91
2021/09/13 02:01:40;;;;;;;5.88;4.10;;;15.30;94.40;;;;;;4991604;28;20109;-91
2021/09/13 02:04:06;;;;;;;5.32;3.75;;;15.30;94.60;;;;;;5033632;28;20018;-90
2021/09/13 02:06:32;;;;;;;7.05;3.95;;;15.20;94.60;;;;;;5015687;28;20136;-91
2021/09/13 02:08:58;;;;;;;6.10;4.00;;;15.20;94.60;;;;;;5010143;28;20037;-91
2021/09/13 02:11:24;;;;;;;4.78;3.92;;;15.20;94.60;;;;;;5008201;28;20087;-92
2021/09/13 02:13:50;;;;;;;4.35;3.88;;;15.20;94.60;;;;;;5018433;28;20021;-92
2021/09/13 02:16:15;;;;;;;7.72;4.10;;;15.20;94.70;;;;;;5032116;28;20556;-90
2021/09/13 02:18:41;;;;;;;6.60;4.35;;;15.20;94.70;;;;;;5015999;28;20083;-90
2021/09/13 02:21:07;;;;;;;6.13;4.15;;;15.10;94.60;;;;;;4991657;28;20088;-90
2021/09/13 02:23:32;;;;;;;5.07;4.18;;;15.20;94.60;;;;;;5026484;28;20042;-91
2021/09/13 02:25:58;;;;;;;4.93;4.00;;;15.20;94.60;;;;;;5012899;28;20079;-91
2021/09/13 02:28:24;;;;;;;6.53;4.57;;;15.10;94.60;;;;;;5008237;28;20501;-91
2021/09/13 02:30:50;;;;;;;8.07;4.53;;;15.10;94.60;;;;;;4984587;28;20024;-90
2021/09/13 02:33:17;;;;;;;5.82;4.63;;;15.10;94.60;;;;;;5029146;28;20034;-91
2021/09/13 02:35:43;;;;;;;7.68;4.82;;;15.10;94.80;;;;;;5029396;28;20132;-91
2021/09/13 02:38:10;;;;;;;7.75;4.50;;;15.10;94.80;;;;;;5016048;28;20033;-91
2021/09/13 02:40:36;;;;;;;7.28;4.95;;;15.10;94.80;;;;;;5003421;28;20391;-91
2021/09/13 02:43:02;;;;;;;6.78;4.88;;;15.00;94.80;;;;;;5036269;28;20502;-92
2021/09/13 02:45:27;;;;;;;7.35;4.78;;;15.00;94.90;;;;;;5017799;28;20026;-91
2021/09/13 02:47:53;;;;;;;5.70;4.90;;;15.00;94.90;;;;;;5007171;28;20025;-92
2021/09/13 02:50:19;;;;;;;9.38;5.32;;;15.00;94.90;;;;;;5019655;28;20030;-92
2021/09/13 02:52:44;;;;;;;6.47;4.93;;;15.00;95.00;;;;;;5003108;28;20049;-92
2021/09/13 02:55:10;;;;;;;5.20;4.18;;;15.00;94.90;;;;;;5019791;28;20029;-91
2021/09/13 02:57:36;;;;;;;3.78;2.97;;;15.00;94.70;;;;;;5020091;28;20075;-91
2021/09/13 03:00:02;;;;;;;3.03;2.30;;;14.90;94.60;;;;;;4991836;28;20365;-91
2021/09/13 03:02:27;;;;;;;2.95;2.55;;;14.90;94.60;;;;;;5015181;28;20034;-91
2021/09/13 03:04:53;;;;;;;3.88;2.40;;;14.80;94.70;;;;;;4993931;28;20029;-92
2021/09/13 03:07:19;;;;;;;3.42;2.22;;;14.80;94.80;;;;;;5002627;28;20029;-92
2021/09/13 03:09:44;;;;;;;2.65;2.33;;;14.80;94.80;;;;;;5019108;28;20375;-92
2021/09/13 03:12:10;;;;;;;3.65;2.22;;;14.80;94.80;;;;;;5002802;28;20057;-92
2021/09/13 03:14:36;;;;;;;3.72;2.40;;;14.80;94.80;;;;;;5035386;28;20017;-91
2021/09/13 03:17:02;;;;;;;2.20;1.95;;;14.80;94.90;;;;;;4990883;28;20520;-92
2021/09/13 03:19:28;;;;;;;2.47;2.20;;;14.80;94.80;;;;;;4997040;28;20109;-92
2021/09/13 03:21:54;;;;;;;3.40;2.83;;;14.70;94.60;;;;;;4999238;28;20037;-91
2021/09/13 03:24:20;;;;;;;4.43;3.40;;;14.70;94.60;;;;;;5018650;28;20029;-91
2021/09/13 03:26:45;;;;;;;4.13;3.20;;;14.60;95.00;;;;;;5019053;28;20419;-92
2021/09/13 03:29:12;;;;;;;5.25;3.65;;;14.60;94.90;;;;;;5005041;28;20365;-91
2021/09/13 03:31:37;;;;;;;7.25;3.33;;;14.60;95.30;;;;;;5018537;28;20026;-90
2021/09/13 03:34:03;;;;;;;9.52;3.28;;;14.60;95.10;;;;;;5022800;28;20153;-91
2021/09/13 03:36:29;;;;;;;9.00;3.17;;;14.60;95.10;;;;;;5013157;28;20068;-91
2021/09/13 03:38:54;;;;;;;3.00;2.70;;;14.60;95.10;;;;;;5018470;28;20479;-91
2021/09/13 03:41:20;;;;;;;8.75;3.53;;;14.50;95.10;;;;;;5001165;28;20052;-92
2021/09/13 03:43:46;;;;;;;5.47;3.35;;;14.50;95.30;;;;;;4994423;28;20026;-91
2021/09/13 03:46:12;;;;;;;3.53;3.05;;;14.50;96.00;;;;;;5028679;28;20041;-90
2021/09/13 03:48:38;;;;;;;3.35;2.95;;;14.40;96.20;;;;;;5018240;28;20490;-91
2021/09/13 03:51:03;;;;;;;3.65;3.10;;;14.40;96.30;;;;;;5018145;28;20025;-91
2021/09/13 03:53:29;;;;;;;4.05;3.38;;;14.40;96.70;;;;;;5035386;28;20352;-90
2021/09/13 03:55:55;;;;;;;5.25;3.80;;;14.40;96.60;;;;;;5037074;28;20054;-91
2021/09/13 03:58:20;;;;;;;4.25;3.63;;;14.40;96.70;;;;;;5020494;28;20045;-91
2021/09/13 04:00:46;;;;;;;8.18;4.28;;;14.40;96.70;;;;;;5004194;28;20364;-90
2021/09/13 04:03:19;;;;;;;4.32;3.75;;;14.40;96.70;;;;;;5019596;28;20033;-90
2021/09/13 04:05:48;;;;;;;5.80;4.28;;;14.40;96.70;;;;;;5019257;28;20024;-90
2021/09/13 04:13:24;;;;;;;6.10;5.30;;;14.40;96.70;;;;;;5024211;28;20056;-91
2021/09/13 04:15:49;;;;;;;5.78;4.90;;;14.40;96.80;;;;;;5019878;28;20372;-91
2021/09/13 04:18:15;;;;;;;6.57;5.50;;;14.40;96.80;;;;;;5014425;28;20117;-91
2021/09/13 04:20:41;;;;;;;6.22;4.72;;;14.40;96.90;;;;;;5017639;28;20463;-91
2021/09/13 04:23:07;;;;;;;6.43;5.00;;;14.40;97.20;;;;;;5001654;28;20124;-91
2021/09/13 04:25:32;;;;;;;6.20;4.90;;;14.40;97.00;;;;;;5001465;28;20176;-90
2021/09/13 04:27:58;;;;;;;6.03;4.10;;;14.40;97.00;;;;;;5001060;28;20056;-90
2021/09/13 04:30:25;;;;;;;5.22;4.57;;;14.40;97.10;;;;;;4985437;28;20468;-90
2021/09/13 04:32:51;;;;;;;5.70;4.35;;;14.40;97.10;;;;;;4999679;28;20036;-91
2021/09/13 04:35:17;;;;;;;6.47;4.82;;;14.40;97.10;;;;;;4998110;28;20019;-91
2021/09/13 04:37:43;;;;;;;5.97;4.78;;;14.40;97.20;;;;;;5014862;28;20028;-92
2021/09/13 04:40:14;;;;;;;5.63;4.57;;;14.40;97.10;;;;;;5033236;28;20463;-91
2021/09/13 04:42:40;;;;;;;6.82;5.43;;;14.50;97.10;;;;;;5019126;28;20128;-92
2021/09/13 04:45:07;;;;;;;6.32;4.97;;;14.50;97.20;;;;;;5034417;28;20056;-91
2021/09/13 04:47:33;;;;;;;5.80;4.60;;;14.40;97.20;;;;;;5017423;28;20116;-91
2021/09/13 04:49:58;;;;;;;6.63;5.55;;;14.40;97.20;;;;;;5001314;28;20120;-92
2021/09/13 04:52:24;;;;;;;6.40;5.40;;;14.50;97.30;;;;;;5009967;23;20064;-88
2021/09/13 04:54:50;;;;;;;7.53;5.55;;;14.40;97.30;;;;;;4991695;28;20030;-88
2021/09/13 04:57:15;;;;;;;6.15;5.10;;;14.50;97.30;;;;;;4980932;28;20030;-88
2021/09/13 04:59:41;;;;;;;6.63;5.18;;;14.40;97.20;;;;;;5006378;28;20025;-88
2021/09/13 05:02:07;;;;;;;7.65;6.00;;;14.40;97.20;;;;;;4984100;28;20034;-88
2021/09/13 05:04:32;;;;;;;7.18;5.32;;;14.40;97.20;;;;;;5014445;28;20090;-88
2021/09/13 05:06:58;;;;;;;6.70;5.60;;;14.40;97.30;;;;;;4998751;28;20053;-86
2021/09/13 05:09:26;;;;;;;7.15;5.72;;;14.40;97.20;;;;;;5008290;28;20018;-87
2021/09/13 05:11:51;;;;;;;6.43;5.20;;;14.40;97.20;;;;;;4994139;28;20034;-87
2021/09/13 05:14:18;;;;;;;6.30;5.38;;;14.40;97.30;;;;;;4977455;28;20384;-87
2021/09/13 05:16:43;;;;;;;6.80;4.80;;;14.40;97.30;;;;;;4992369;28;20117;-88
2021/09/13 05:19:09;;;;;;;5.93;5.07;;;14.40;97.40;;;;;;4960738;28;20128;-87
2021/09/13 05:21:38;;;;;;;5.00;4.40;;;14.40;97.40;;;;;;4992755;28;20022;-88
2021/09/13 05:24:07;;;;;;;7.53;5.32;;;14.40;97.40;;;;;;4976878;28;20415;-87
2021/09/13 05:26:33;;;;;;;6.55;4.85;;;14.40;97.30;;;;;;4974540;28;20030;-87
2021/09/13 05:28:59;;;;;;;6.93;5.30;;;14.40;97.40;;;;;;5000682;28;20072;-88
2021/09/13 05:31:25;;;;;;;6.90;5.32;;;14.40;97.40;;;;;;5006995;28;20095;-87
2021/09/13 05:33:51;;;;;;;8.57;6.40;;;14.40;97.60;;;;;;4989869;28;20456;-87
2021/09/13 05:36:17;;;;;;;6.57;5.60;;;14.40;97.80;;;;;;4976351;28;20054;-88
2021/09/13 05:38:43;;;;;;;9.20;5.78;;;14.40;97.80;;;;;;4974253;28;20098;-88
2021/09/13 05:41:09;;;;;;;6.03;4.82;;;14.40;98.30;;;;;;4985386;28;20110;-87
2021/09/13 05:43:35;;;;;;;5.78;4.18;;;14.40;98.40;;;;;;4974423;28;20113;-87
2021/09/13 05:46:00;;;;;;;5.25;4.10;;;14.40;98.50;;;;;;4948738;28;20035;-88
2021/09/13 05:48:26;;;;;;;4.95;3.70;;;14.30;98.40;;;;;;4993636;28;20410;-86
2021/09/13 05:50:52;;;;;;;5.38;3.70;;;14.30;98.30;;;;;;4962470;28;20027;-87
2021/09/13 05:53:19;;;;;;;5.65;3.90;;;14.30;98.40;;;;;;5031780;28;20050;-87
2021/09/13 05:55:44;;;;;;;4.55;3.78;;;14.30;98.40;;;;;;5009455;28;20022;-87
2021/09/13 05:58:11;;;;;;;4.80;3.78;;;14.30;98.20;;;;;;4997441;28;20029;-88
2021/09/13 06:00:36;;;;;;;5.88;4.82;;;14.30;98.20;;;;;;5007315;28;20029;-88
2021/09/13 06:03:02;;;;;;;7.88;5.15;;;14.30;98.10;;;;;;5003513;28;20026;-87
2021/09/13 06:05:28;;;;;;;7.00;4.85;;;14.30;98.10;;;;;;4995119;28;20026;-88
2021/09/13 06:07:54;;;;;;;6.05;5.22;;;14.30;98.00;;;;;;5000056;28;20377;-86
2021/09/13 06:10:20;;;;;;;6.43;4.63;;;14.40;98.20;;;;;;5008902;28;20025;-87
2021/09/13 06:12:45;;;;;;;5.43;4.30;;;14.40;98.10;;;;;;5012802;28;20033;-88
2021/09/13 06:15:11;;;;;;;4.53;3.78;;;14.30;98.00;;;;;;4986955;28;20030;-86
2021/09/13 06:17:37;;;;;;;5.10;3.85;;;14.30;98.00;;;;;;5008406;28;20038;-87
2021/09/13 06:20:04;;;;;;;5.65;4.00;;;14.30;97.90;;;;;;4985338;28;20034;-88
2021/09/13 06:22:30;;;;;;;4.20;3.60;;;14.30;98.00;;;;;;4995958;28;20057;-88
2021/09/13 06:24:56;;;;;;;4.70;4.10;;;14.30;98.00;;;;;;4977328;28;20070;-87
2021/09/13 06:27:22;;;;;;;4.55;3.92;;;14.30;97.90;;;;;;5009928;28;20030;-87
2021/09/13 06:29:48;;;;;;;4.63;3.70;;;14.30;97.90;;;;;;5015697;28;20052;-87
2021/09/13 06:32:13;;;;;;;5.28;4.30;;;14.30;98.00;;;;;;5009389;28;20037;-88
2021/09/13 06:34:39;;;;;;;5.85;5.13;;;14.30;98.00;;;;;;4990673;28;20162;-88
2021/09/13 06:37:05;;;;;;;7.22;5.53;;;14.30;98.10;;;;;;5010612;28;20026;-87
2021/09/13 06:39:31;;;;;;;6.30;5.22;;;14.20;98.10;;;;;;5008811;28;20034;-88
2021/09/13 06:41:56;;;;;;;6.40;5.03;;;14.30;98.20;;;;;;5025425;28;20483;-87
2021/09/13 06:44:23;;;;;;;6.10;4.72;;;14.30;98.20;;;;;;4990618;28;20383;-87
2021/09/13 06:47:01;;;;;;;5.47;4.32;;;14.30;98.20;;;;;;4996168;28;20034;-88
2021/09/13 06:49:26;;;;;;;6.03;4.72;;;14.30;98.40;;;;;;5000667;28;20025;-88
2021/09/13 06:51:52;;;;;;;5.95;4.68;;;14.30;98.40;;;;;;5002474;28;20042;-87
2021/09/13 06:54:18;;;;;;;6.60;4.78;;;14.30;98.40;;;;;;4985836;28;20526;-87
2021/09/13 06:57:00;;;;;;;7.68;5.40;;;14.30;98.50;;;;;;4995510;28;20030;-88
2021/09/13 06:59:26;;;;;;;6.45;5.30;;;14.40;98.80;;;;;;4995688;28;20125;-87
2021/09/13 07:01:51;;;;;;;6.32;5.13;;;14.40;98.70;;;;;;5014276;28;20163;-87
2021/09/13 07:04:18;;;;;;;7.25;5.90;;;14.40;98.80;;;;;;4995888;28;20096;-87
2021/09/13 07:06:44;;;;;;;8.13;6.05;;;14.50;98.90;;;;;;5020484;28;20387;-87
2021/09/13 07:09:11;;;;;;;8.82;6.35;;;14.50;99.00;;;;;;5000328;28;20023;-87
2021/09/13 07:15:00;;;;;;;7.07;5.63;;;14.60;99.10;;;;;;4993113;28;20104;-88
2021/09/13 07:17:31;;;;;;;6.25;5.05;;;14.60;99.10;;;;;;5008556;28;20057;-88
2021/09/13 07:20:03;;;;;;;7.30;5.65;;;14.70;99.10;;;;;;4985816;28;20060;-88
2021/09/13 07:22:28;;;;;;;6.78;5.13;;;14.70;99.20;;;;;;4998258;28;20387;-88
2021/09/13 07:24:54;;;;;;;6.07;4.28;;;14.80;99.10;;;;;;4976120;28;20046;-88
2021/09/13 07:27:20;;;;;;;4.60;4.07;;;14.80;99.00;;;;;;4995413;28;20027;-88
2021/09/13 07:29:45;;;;;;;5.93;4.60;;;14.90;98.90;;;;;;4996181;28;20038;-88
2021/09/13 07:32:11;;;;;;;7.53;4.22;;;14.90;98.90;;;;;;4994372;28;20018;-87
2021/09/13 07:34:37;;;;;;;7.32;4.25;;;15.00;98.90;;;;;;5009874;28;20456;-87
2021/09/13 07:37:03;;;;;;;7.28;4.32;;;15.10;98.90;;;;;;5006815;28;20031;-87
2021/09/13 07:39:29;;;;;;;6.25;4.32;;;15.20;98.90;;;;;;5009718;28;20025;-87
2021/09/13 07:41:56;;;;;;;7.55;5.13;;;15.20;98.80;;;;;;5010569;28;20023;-88
2021/09/13 07:44:22;;;;;;;7.13;5.18;;;15.30;98.80;;;;;;5017713;28;20480;-88
2021/09/13 07:46:48;;;;;;;9.38;5.15;;;15.40;98.80;;;;;;4982935;28;20056;-88
2021/09/13 07:49:14;;;;;;;8.23;5.07;;;15.40;98.80;;;;;;4985104;28;20030;-88
2021/09/13 07:51:39;;;;;;;8.43;4.95;;;15.50;98.80;;;;;;4977957;28;20484;-88
2021/09/13 07:54:06;;;;;;;8.18;4.82;;;15.60;98.90;;;;;;5009941;28;20611;-89
2021/09/13 07:56:33;;;;;;;9.23;5.38;;;15.60;98.90;;;;;;4997924;28;20065;-90
2021/09/13 07:59:02;;;;;;;6.72;4.90;;;15.70;98.90;;;;;;5011152;28;20428;-88
2021/09/13 08:01:31;;;;;;;8.60;4.85;;;15.80;98.90;;;;;;4995072;28;20030;-89
2021/09/13 08:03:57;;;;;;;6.28;4.70;;;15.80;99.00;;;;;;4999382;28;20034;-88
2021/09/13 08:06:23;;;;;;;7.47;5.05;;;15.90;99.00;;;;;;4997816;28;20512;-87
2021/09/13 08:08:49;;;;;;;9.32;5.20;;;16.00;99.00;;;;;;4994730;28;20026;-87
2021/09/13 08:11:15;;;;;;;8.15;4.75;;;16.10;99.00;;;;;;5006190;28;20026;-87
2021/09/13 08:13:42;;;;;;;8.07;4.90;;;16.20;99.10;;;;;;4998297;28;20029;-87
2021/09/13 08:16:09;;;;;;;6.28;4.13;;;16.20;99.10;;;;;;4997845;28;20195;-87
2021/09/13 08:18:35;;;;;;;7.20;4.40;;;16.30;99.10;;;;;;4982042;28;20031;-86
2021/09/13 08:21:01;;;;;;;7.40;3.85;;;16.40;99.10;;;;;;4994483;28;20111;-86
2021/09/13 08:23:27;;;;;;;8.10;3.70;;;16.40;99.10;;;;;;4994776;28;20117;-87
2021/09/13 08:25:52;;;;;;;5.25;3.47;;;16.50;99.20;;;;;;5007627;28;20045;-88
2021/09/13 08:28:22;;;;;;;7.22;3.22;;;16.60;99.30;;;;;;5023060;28;20621;-87
2021/09/13 08:30:48;;;;;;;5.07;2.95;;;16.70;99.30;;;;;;4995185;28;20476;-87
2021/09/13 08:33:14;;;;;;;6.28;2.50;;;16.80;99.30;;;;;;4992780;28;20033;-87
2021/09/13 08:35:40;;;;;;;8.18;3.22;;;16.80;99.30;;;;;;4986214;28;20026;-87
2021/09/13 08:38:06;;;;;;;4.50;2.60;;;16.90;99.30;;;;;;4967471;28;20042;-86
2021/09/13 08:40:32;;;;;;;4.65;2.90;;;16.90;99.30;;;;;;5007507;28;20052;-88
2021/09/13 08:42:59;;;;;;;6.10;3.22;;;17.00;99.30;;;;;;4977237;28;20030;-88
2021/09/13 08:45:38;;;;;;;5.60;3.00;;;17.10;99.20;;;;;;5010318;28;20396;-89
2021/09/13 08:48:24;;;;;;;5.07;2.85;;;17.20;99.40;;;;;;4994899;28;20546;-88
2021/09/13 08:53:25;;;;;;;4.80;2.72;;;17.30;99.30;;;;;;5009949;28;20061;-88
2021/09/13 08:55:51;;;;;;;5.35;2.58;;;17.40;99.20;;;;;;4979761;28;20038;-88
2021/09/13 08:58:22;;;;;;;4.75;2.72;;;17.40;99.40;;;;;;4994018;28;20030;-87
2021/09/13 09:00:48;;;;;;;;;;;17.50;99.50;;;;;;4979438;28;20045;-88
2021/09/13 09:03:15;;;;;;;4.75;2.45;;;17.50;99.70;;;;;;5010059;28;19914;-88
2021/09/13 09:05:43;;;;;;;4.18;2.33;;;17.60;99.40;;;;;;4995121;28;20054;-90
2021/09/13 09:08:29;;;;;;;4.55;2.20;;;17.60;99.30;;;;;;5023868;28;20068;-88
2021/09/13 09:11:05;;;;;;;3.50;2.10;;;17.70;99.20;;;;;;5000140;28;20030;-90
2021/09/13 09:13:42;;;;;;;3.45;1.88;;;17.80;99.20;;;;;;5018972;28;20054;-89
2021/09/13 09:16:10;;;;;;;3.58;2.30;;;17.80;99.20;;;;;;5004001;28;20072;-89
2021/09/13 09:18:39;;;;;;;5.68;2.15;;;17.90;99.20;;;;;;4996387;28;20117;-89
2021/09/13 09:21:07;;;;;;;3.65;1.92;;;18.00;99.20;;;;;;5011216;28;20457;-86
2021/09/13 09:23:34;;;;;;;3.15;2.25;;;18.10;99.20;;;;;;4990345;28;20022;-87
2021/09/13 09:26:12;;;;;;;3.10;2.08;;;18.10;99.20;;;;;;5009867;28;20022;-88
2021/09/13 09:28:38;;;;;;;4.97;2.55;;;18.20;99.30;;;;;;4982998;28;20460;-88
2021/09/13 09:31:04;;;;;;;4.68;2.47;;;18.20;99.20;;;;;;5009663;28;20030;-87
2021/09/13 09:33:29;;;;;;;6.60;2.85;;;18.30;99.20;;;;;;5006739;28;20038;-88
2021/09/13 09:35:57;;;;;;;4.60;2.42;;;18.40;99.30;;;;;;5009540;28;20018;-88
2021/09/13 09:38:37;;;;;;;5.22;2.90;;;18.40;99.30;;;;;;4990252;28;20022;-88
2021/09/13 09:41:07;;;;;;;3.30;2.17;;;18.50;99.20;;;;;;4996178;28;20018;-87
2021/09/13 09:43:55;;;;;;;4.43;2.25;;;18.50;99.10;;;;;;4993417;28;20118;-89
2021/09/13 09:46:21;;;;;;;3.45;1.90;;;18.50;99.20;;;;;;4990073;28;20027;-87
2021/09/13 09:48:47;;;;;;;4.32;2.20;;;18.60;99.00;;;;;;5009897;28;20019;-89
2021/09/13 09:51:33;;;;;;;4.43;2.50;;;18.60;99.00;;;;;;5009815;28;20015;-89
2021/09/13 09:54:09;;;;;;;3.58;2.10;;;18.70;99.00;;;;;;5002100;28;20077;-88
2021/09/13 09:56:35;;;;;;;3.88;1.95;;;18.70;98.80;;;;;;5012570;28;20085;-88
2021/09/13 09:59:06;;;;;;;2.97;1.80;;;18.70;98.60;;;;;;4995263;28;20049;-89
2021/09/13 10:01:43;;;;;;;3.83;2.00;;;18.80;98.60;;;;;;4978405;28;20038;-89
2021/09/13 10:04:21;;;;;;;3.38;1.65;;;18.80;98.60;;;;;;4993436;28;20046;-89
2021/09/13 10:06:52;;;;;;;2.95;1.48;;;18.80;98.60;;;;;;5002617;28;20472;-89
2021/09/13 10:09:20;;;;;;;2.03;1.48;;;18.90;98.50;;;;;;4991959;28;20512;-89
2021/09/13 10:11:47;;;;;;;2.20;1.38;;;18.90;98.40;;;;;;4993455;28;20031;-88
2021/09/13 10:14:16;;;;;;;3.63;1.65;;;19.00;98.40;;;;;;4976775;28;20531;-89
2021/09/13 10:16:43;;;;;;;4.32;2.10;;;19.00;98.40;;;;;;4993029;28;20057;-90
2021/09/13 10:19:09;;;;;;;3.10;1.67;;;19.10;98.40;;;;;;5010241;28;20030;-90
2021/09/13 10:21:35;;;;;;;2.17;1.77;;;19.10;98.40;;;;;;5009972;28;20031;-89
2021/09/13 10:24:27;;;;;;;3.90;2.00;;;19.20;98.40;;;;;;4994197;28;20082;-88
2021/09/13 10:27:06;;;;;;;3.33;2.03;;;19.30;98.30;;;;;;5004435;28;20121;-88
2021/09/13 10:29:32;;;;;;;3.45;1.85;;;19.30;98.00;;;;;;5006627;28;20027;-88
2021/09/13 10:32:07;;;;;;;2.97;1.85;;;19.40;97.80;;;;;;4994818;28;20030;-89
2021/09/13 10:34:35;;;;;;;4.45;1.83;;;19.40;97.90;;;;;;5012312;28;20026;-89
2021/09/13 10:37:15;;;;;;;2.55;1.27;;;19.50;97.70;;;;;;5006330;28;20026;-88
2021/09/13 10:40:02;;;;;;;4.75;2.10;;;19.50;97.80;;;;;;4993811;28;20022;-87
2021/09/13 10:42:37;;;;;;;3.92;1.95;;;19.70;97.80;;;;;;5003477;28;20022;-88
2021/09/13 10:45:03;;;;;;;2.97;1.90;;;19.70;97.40;;;;;;5006441;28;20097;-89
2021/09/13 10:47:29;;;;;;;4.50;1.58;;;19.80;97.40;;;;;;5008392;28;20034;-87
2021/09/13 10:50:12;;;;;;;2.90;1.67;;;19.80;97.30;;;;;;4991432;28;20019;-87
2021/09/13 10:52:38;;;;;;;3.40;1.67;;;19.90;97.20;;;;;;5016456;23;20054;-85
2021/09/13 10:55:11;;;;;;;2.95;1.50;;;19.90;96.70;;;;;;5020513;28;20026;-86
2021/09/13 10:58:25;;;;;;;2.97;1.30;;;20.00;97.00;;;;;;5012699;28;20037;-85
2021/09/13 11:00:55;;;;;;;4.63;1.52;;;20.00;96.80;;;;;;4997657;28;20033;-85
2021/09/13 11:06:08;;;;;;;2.70;1.60;;;20.10;96.50;;;;;;5015977;28;20033;-85
2021/09/13 11:08:37;;;;;;;3.72;1.70;;;20.20;96.30;;;;;;5014093;28;20512;-85
2021/09/13 11:11:08;;;;;;;2.13;1.40;;;20.20;96.20;;;;;;5014010;28;20057;-85
2021/09/13 11:13:58;;;;;;;3.42;1.70;;;20.30;96.30;;;;;;5014244;28;20014;-85
2021/09/13 11:16:24;;;;;;;4.03;2.10;;;20.40;96.40;;;;;;5030639;28;20037;-85
2021/09/13 11:18:50;;;;;;;3.70;2.13;;;20.40;95.90;;;;;;5010647;28;20467;-85
2021/09/13 11:21:27;;;;;;;2.85;1.95;;;20.50;95.80;;;;;;5014076;28;20125;-85
2021/09/13 11:23:57;;;;;;;2.88;1.80;;;20.60;95.80;;;;;;5011000;28;20542;-85
2021/09/13 11:26:51;;;;;;;4.25;1.67;;;20.60;95.70;;;;;;5021177;28;20081;-85
2021/09/13 11:29:18;;;;;;;3.80;1.70;;;20.70;95.80;;;;;;5010475;28;20365;-85
2021/09/13 11:31:45;;;;;;;2.50;1.58;;;20.80;95.40;;;;;;5030428;28;20034;-86
2021/09/13 11:34:14;;;;;;;2.35;1.48;;;20.80;95.20;;;;;;5030318;28;20375;-85
2021/09/13 11:37:08;;;;;;;2.70;1.17;;;20.90;94.70;;;;;;5013620;28;20026;-85
2021/09/13 11:39:37;;;;;;;3.08;1.45;;;20.90;94.40;;;;;;4989947;28;20036;-85
2021/09/13 11:42:16;;;;;;;3.50;1.52;;;21.00;94.30;;;;;;5030359;28;20069;-85
2021/09/13 11:44:45;;;;;;;3.40;1.27;;;21.00;93.80;;;;;;5002661;28;20025;-84
2021/09/13 11:47:25;;;;;;;1.73;1.10;;;21.00;93.10;;;;;;5013294;28;20524;-85
2021/09/13 11:49:53;;;;;;;1.35;0.95;;;21.00;92.60;;;;;;5030348;28;20018;-85
2021/09/13 11:52:30;;;;;;;2.13;1.20;;;21.10;92.80;;;;;;5013134;28;20045;-85
2021/09/13 11:55:07;;;;;;;1.85;1.05;;;21.10;92.70;;;;;;4978527;28;20053;-85
2021/09/13 11:57:38;;;;;;;3.60;1.10;;;21.20;92.80;;;;;;4992812;28;20026;-85
2021/09/13 12:00:20;;;;;;;1.95;1.20;;;21.20;92.40;;;;;;5012995;28;20121;-85
2021/09/13 12:03:00;;;;;;;3.17;1.48;;;21.30;92.30;;;;;;5013194;28;20076;-86
2021/09/13 12:05:29;;;;;;;2.40;1.02;;;21.40;91.70;;;;;;5013088;28;20113;-85
2021/09/13 12:07:58;;;;;;;1.95;1.23;;;21.40;92.00;;;;;;5012745;28;20037;-86
2021/09/13 12:10:30;;;;;;;2.78;1.13;;;21.40;91.90;;;;;;4996820;28;20080;-85
2021/09/13 12:13:23;;;;;;;4.35;1.35;;;21.50;92.00;;;;;;5012604;28;20018;-85
2021/09/13 12:15:49;;;;;;;3.17;1.20;;;21.60;91.20;;;;;;4993431;28;20041;-84
2021/09/13 12:18:17;;;;;;;1.80;1.10;;;21.60;91.70;;;;;;4993015;28;20388;-84
2021/09/13 12:21:16;;;;;;;2.97;1.17;;;21.60;91.80;;;;;;4985078;28;20030;-84
2021/09/13 12:23:45;;;;;;;2.97;1.33;;;21.70;91.60;;;;;;4986238;28;20053;-84
2021/09/13 12:26:11;;;;;;;1.90;1.10;;;21.70;91.70;;;;;;4980911;28;20115;-85
2021/09/13 12:28:37;;;;;;;2.25;1.23;;;21.80;91.70;;;;;;4980195;28;20061;-85
2021/09/13 12:31:08;;;;;;;2.75;1.38;;;21.80;91.80;;;;;;4995710;28;20030;-85
2021/09/13 12:33:46;;;;;;;;;;;21.80;91.40;;;;;;5012530;28;20033;-85
2021/09/13 12:36:23;;;;;;;3.75;1.42;;;21.80;90.20;;;;;;5005044;28;19944;-85
2021/09/13 12:38:55;;;;;;;3.13;1.27;;;21.90;91.40;;;;;;5005634;28;20046;-85
2021/09/13 12:41:37;;;;;;;2.70;1.30;;;21.90;91.20;;;;;;4990534;28;20022;-85
2021/09/13 12:44:21;;;;;;;4.82;1.60;;;21.90;90.50;;;;;;4982891;28;20021;-86
2021/09/13 12:46:49;;;;;;;3.08;1.20;;;22.00;90.50;;;;;;5011328;28;20022;-85
2021/09/13 12:49:15;;;;;;;2.85;1.30;;;22.00;90.90;;;;;;5011370;28;20399;-85
2021/09/13 12:51:41;;;;;;;4.95;1.15;;;22.10;90.30;;;;;;5017194;28;20512;-85
2021/09/13 12:54:07;;;;;;;2.05;1.20;;;22.10;90.10;;;;;;4999891;28;20049;-85
2021/09/13 12:56:45;;;;;;;2.33;1.20;;;22.10;89.60;;;;;;5016478;28;20042;-85
2021/09/13 12:59:20;;;;;;;2.78;1.35;;;22.20;89.40;;;;;;5033841;28;20030;-85
2021/09/13 13:01:47;;;;;;;3.45;1.30;;;22.30;89.10;;;;;;5000187;28;20462;-85
2021/09/13 13:04:16;;;;;;;2.47;1.23;;;22.20;86.40;;;;;;4995795;28;20040;-85
2021/09/13 13:06:43;;;;;;;2.00;1.10;;;22.30;87.10;;;;;;5023046;28;20026;-85
2021/09/13 13:09:11;;;;;;;0.80;0.70;;;22.30;87.70;;;;;;5015059;28;20550;-85